createdAt,value
2023-05-20T00:00:08.020Z,14.43
2023-05-20T00:01:08.008Z,14.47
2023-05-20T00:02:07.996Z,14.47
2023-05-20T00:03:08.108Z,14.51
2023-05-20T00:04:08.051Z,14.58
2023-05-20T00:05:08.016Z,14.61
2023-05-20T00:06:07.946Z,14.65
2023-05-20T00:07:07.934Z,14.64
2023-05-20T00:08:07.940Z,14.65
2023-05-20T00:09:07.905Z,14.69
2023-05-20T00:10:07.890Z,14.72
2023-05-20T00:11:07.879Z,14.70
2023-05-20T00:12:07.864Z,14.68
2023-05-20T00:13:07.856Z,14.72
2023-05-20T00:14:07.864Z,14.64
2023-05-20T00:15:07.824Z,14.65
2023-05-20T00:16:07.815Z,14.62
2023-05-20T00:17:07.806Z,14.72
2023-05-20T00:18:07.829Z,14.73
2023-05-20T00:19:07.831Z,14.73
2023-05-20T00:20:07.761Z,14.72
2023-05-20T00:21:07.749Z,14.72
2023-05-20T00:22:07.742Z,14.73
2023-05-20T00:23:07.728Z,14.73
2023-05-20T00:24:07.708Z,14.82
2023-05-20T00:25:07.701Z,14.82
2023-05-20T00:26:07.688Z,14.83
2023-05-20T00:27:07.672Z,14.85
2023-05-20T00:28:07.672Z,14.79
2023-05-20T00:29:07.646Z,14.77
2023-05-20T00:30:07.663Z,14.77
2023-05-20T00:31:07.624Z,14.79
2023-05-20T00:32:07.687Z,14.77
2023-05-20T00:33:07.627Z,14.76
2023-05-20T00:34:07.582Z,14.73
2023-05-20T00:35:07.608Z,14.76
2023-05-20T00:36:07.562Z,14.77
2023-05-20T00:37:07.554Z,14.75
2023-05-20T00:38:07.526Z,14.77
2023-05-20T00:39:07.522Z,14.76
2023-05-20T00:40:07.522Z,14.73
2023-05-20T00:41:07.504Z,14.76
2023-05-20T00:42:07.473Z,14.77
2023-05-20T00:43:07.473Z,14.79
2023-05-20T00:44:07.463Z,14.80
2023-05-20T00:45:07.449Z,14.82
2023-05-20T00:46:07.575Z,14.77
2023-05-20T00:47:07.424Z,14.79
2023-05-20T00:48:07.450Z,14.76
2023-05-20T00:49:07.407Z,14.77
2023-05-20T00:50:07.417Z,14.77
2023-05-20T00:51:07.368Z,14.80
2023-05-20T00:52:07.349Z,14.83
2023-05-20T00:53:07.345Z,14.80
2023-05-20T00:54:07.322Z,14.79
2023-05-20T00:55:07.310Z,14.76
2023-05-20T00:56:07.297Z,14.77
2023-05-20T00:57:07.287Z,14.77
2023-05-20T00:58:07.291Z,14.76
2023-05-20T00:59:07.265Z,14.77
2023-05-20T01:00:07.246Z,14.77
2023-05-20T01:01:07.290Z,14.70
2023-05-20T01:02:07.328Z,14.72
2023-05-20T01:03:07.306Z,14.75
2023-05-20T01:04:07.199Z,14.73
2023-05-20T01:05:07.183Z,14.75
2023-05-20T01:06:07.169Z,14.70
2023-05-20T01:07:07.167Z,14.72
2023-05-20T01:08:07.154Z,14.70
2023-05-20T01:09:07.136Z,14.65
2023-05-20T01:10:07.126Z,14.68
2023-05-20T01:11:07.118Z,14.64
2023-05-20T01:12:07.089Z,14.65
2023-05-20T01:13:07.080Z,14.65
2023-05-20T01:14:07.074Z,14.65
2023-05-20T01:15:07.052Z,14.68
2023-05-20T01:16:07.104Z,14.65
2023-05-20T01:17:07.033Z,14.62
2023-05-20T01:18:07.057Z,14.65
2023-05-20T01:19:07.074Z,14.64
2023-05-20T01:20:06.985Z,14.68
2023-05-20T01:21:06.996Z,14.69
2023-05-20T01:22:06.974Z,14.68
2023-05-20T01:23:06.970Z,14.64
2023-05-20T01:24:06.936Z,14.65
2023-05-20T01:25:06.938Z,14.70
2023-05-20T01:26:06.922Z,14.69
2023-05-20T01:27:06.901Z,14.70
2023-05-20T01:28:06.880Z,14.70
2023-05-20T01:29:06.870Z,14.72
2023-05-20T01:30:06.856Z,14.73
2023-05-20T01:31:06.855Z,14.73
2023-05-20T01:32:06.848Z,14.76
2023-05-20T01:33:06.849Z,14.79
2023-05-20T01:34:06.840Z,14.76
2023-05-20T01:35:06.792Z,14.73
2023-05-20T01:36:06.786Z,14.68
2023-05-20T01:37:06.771Z,14.70
2023-05-20T01:38:06.767Z,14.68
2023-05-20T01:39:06.754Z,14.69
2023-05-20T01:40:06.757Z,14.70
2023-05-20T01:41:06.712Z,14.61
2023-05-20T01:42:06.702Z,14.65
2023-05-20T01:43:06.691Z,14.65
2023-05-20T01:44:06.693Z,14.68
2023-05-20T01:45:06.666Z,14.68
2023-05-20T01:46:06.673Z,14.65
2023-05-20T01:47:06.758Z,14.62
2023-05-20T01:48:06.680Z,14.69
2023-05-20T01:49:06.614Z,14.65
2023-05-20T01:50:06.623Z,14.61
2023-05-20T01:51:06.609Z,14.58
2023-05-20T01:52:06.593Z,14.60
2023-05-20T01:53:06.565Z,14.60
2023-05-20T01:54:06.548Z,14.58
2023-05-20T01:55:06.543Z,14.58
2023-05-20T01:56:06.530Z,14.58
2023-05-20T01:57:06.521Z,14.61
2023-05-20T01:58:06.508Z,14.64
2023-05-20T01:59:06.490Z,14.58
2023-05-20T02:01:06.533Z,14.60
2023-05-20T02:02:06.495Z,14.57
2023-05-20T02:03:06.459Z,14.57
2023-05-20T02:04:06.421Z,14.57
2023-05-20T02:05:06.412Z,14.52
2023-05-20T02:06:06.488Z,14.61
2023-05-20T02:07:06.377Z,14.61
2023-05-20T02:08:06.395Z,14.61
2023-05-20T02:09:06.359Z,14.61
2023-05-20T02:10:06.360Z,14.61
2023-05-20T02:11:06.332Z,14.60
2023-05-20T02:12:06.329Z,14.57
2023-05-20T02:13:06.310Z,14.55
2023-05-20T02:14:06.301Z,14.55
2023-05-20T02:15:06.300Z,14.47
2023-05-20T02:16:06.330Z,14.50
2023-05-20T02:17:06.257Z,14.50
2023-05-20T02:18:06.281Z,14.51
2023-05-20T02:19:06.238Z,14.50
2023-05-20T02:20:06.212Z,14.47
2023-05-20T02:21:06.201Z,14.50
2023-05-20T02:22:06.225Z,14.46
2023-05-20T02:23:06.182Z,14.47
2023-05-20T02:24:06.172Z,14.50
2023-05-20T02:25:06.160Z,14.46
2023-05-20T02:26:06.150Z,14.50
2023-05-20T02:27:06.141Z,14.40
2023-05-20T02:28:06.230Z,14.43
2023-05-20T02:29:06.101Z,14.43
2023-05-20T02:30:06.092Z,14.42
2023-05-20T02:31:06.077Z,14.42
2023-05-20T02:32:06.074Z,14.40
2023-05-20T02:33:06.145Z,14.36
2023-05-20T02:34:06.109Z,14.37
2023-05-20T02:35:06.034Z,14.33
2023-05-20T02:36:06.010Z,14.35
2023-05-20T02:37:06.010Z,14.28
2023-05-20T02:38:06.012Z,14.28
2023-05-20T02:39:05.969Z,14.32
2023-05-20T02:40:05.958Z,14.27
2023-05-20T02:41:05.951Z,14.28
2023-05-20T02:42:05.931Z,14.29
2023-05-20T02:43:05.921Z,14.28
2023-05-20T02:44:05.907Z,14.22
2023-05-20T02:45:05.895Z,14.25
2023-05-20T02:46:05.959Z,14.27
2023-05-20T02:47:05.868Z,14.28
2023-05-20T02:48:05.922Z,14.25
2023-05-20T02:49:05.856Z,14.21
2023-05-20T02:50:05.833Z,14.20
2023-05-20T02:51:05.817Z,14.18
2023-05-20T02:52:05.802Z,14.17
2023-05-20T02:53:05.787Z,14.20
2023-05-20T02:54:05.802Z,14.15
2023-05-20T02:55:05.769Z,14.17
2023-05-20T02:56:05.746Z,14.15
2023-05-20T02:57:05.737Z,14.15
2023-05-20T02:58:05.721Z,14.20
2023-05-20T02:59:05.706Z,14.17
2023-05-20T03:00:05.695Z,14.17
2023-05-20T03:01:05.707Z,14.17
2023-05-20T03:02:05.672Z,14.15
2023-05-20T03:03:05.717Z,14.10
2023-05-20T03:04:05.663Z,14.09
2023-05-20T03:05:05.638Z,14.12
2023-05-20T03:06:05.616Z,14.07
2023-05-20T03:07:05.602Z,14.07
2023-05-20T03:08:05.594Z,14.06
2023-05-20T03:09:05.604Z,14.07
2023-05-20T03:10:05.593Z,14.07
2023-05-20T03:11:06.741Z,14.03
2023-05-20T03:12:05.540Z,14.07
2023-05-20T03:13:05.535Z,14.03
2023-05-20T03:14:05.544Z,14.09
2023-05-20T03:15:05.561Z,14.07
2023-05-20T03:16:05.530Z,14.09
2023-05-20T03:17:05.476Z,14.09
2023-05-20T03:18:05.579Z,14.10
2023-05-20T03:19:05.505Z,14.06
2023-05-20T03:20:05.435Z,14.03
2023-05-20T03:21:05.448Z,14.01
2023-05-20T03:22:05.421Z,13.99
2023-05-20T03:23:05.411Z,13.99
2023-05-20T03:24:05.384Z,13.96
2023-05-20T03:25:05.373Z,13.99
2023-05-20T03:26:05.389Z,13.98
2023-05-20T03:27:05.343Z,13.94
2023-05-20T03:28:05.330Z,13.94
2023-05-20T03:29:05.315Z,13.87
2023-05-20T03:30:05.304Z,13.88
2023-05-20T03:31:05.335Z,13.84
2023-05-20T03:32:05.275Z,13.77
2023-05-20T03:33:05.263Z,13.76
2023-05-20T03:34:05.258Z,13.70
2023-05-20T03:35:05.249Z,13.74
2023-05-20T03:36:05.234Z,13.74
2023-05-20T03:37:05.209Z,13.70
2023-05-20T03:38:05.198Z,13.65
2023-05-20T03:39:05.215Z,13.69
2023-05-20T03:40:05.173Z,13.70
2023-05-20T03:41:05.165Z,13.70
2023-05-20T03:42:05.193Z,13.74
2023-05-20T03:43:05.131Z,13.76
2023-05-20T03:44:05.137Z,13.74
2023-05-20T03:45:05.110Z,13.70
2023-05-20T03:46:05.092Z,13.76
2023-05-20T03:47:05.124Z,13.76
2023-05-20T03:48:05.108Z,13.76
2023-05-20T03:49:05.077Z,13.78
2023-05-20T03:50:05.043Z,13.77
2023-05-20T03:51:05.035Z,13.74
2023-05-20T03:52:05.025Z,13.74
2023-05-20T03:53:05.004Z,13.78
2023-05-20T03:54:05.009Z,13.77
2023-05-20T03:55:05.011Z,13.74
2023-05-20T03:56:04.961Z,13.72
2023-05-20T03:57:04.965Z,13.74
2023-05-20T03:58:04.964Z,13.72
2023-05-20T03:59:04.930Z,13.70
2023-05-20T04:00:04.921Z,13.68
2023-05-20T04:01:04.912Z,13.72
2023-05-20T04:02:04.943Z,13.74
2023-05-20T04:03:04.939Z,13.74
2023-05-20T04:04:04.915Z,13.72
2023-05-20T04:05:04.867Z,13.76
2023-05-20T04:06:04.841Z,13.76
2023-05-20T04:07:04.821Z,13.76
2023-05-20T04:08:04.820Z,13.74
2023-05-20T04:09:04.791Z,13.77
2023-05-20T04:10:04.800Z,13.78
2023-05-20T04:11:04.769Z,13.80
2023-05-20T04:12:04.757Z,13.81
2023-05-20T04:13:04.740Z,13.80
2023-05-20T04:14:04.761Z,13.84
2023-05-20T04:15:04.720Z,13.88
2023-05-20T04:16:04.707Z,13.91
2023-05-20T04:17:04.872Z,13.94
2023-05-20T04:18:04.747Z,13.94
2023-05-20T04:19:04.681Z,13.96
2023-05-20T04:20:04.655Z,14.01
2023-05-20T04:21:04.640Z,13.96
2023-05-20T04:22:04.624Z,13.99
2023-05-20T04:23:04.624Z,14.09
2023-05-20T04:24:04.620Z,14.10
2023-05-20T04:25:04.589Z,14.15
2023-05-20T04:26:04.575Z,14.17
2023-05-20T04:27:04.560Z,14.14
2023-05-20T04:28:04.551Z,14.18
2023-05-20T04:29:04.534Z,14.21
2023-05-20T04:30:04.561Z,14.18
2023-05-20T04:31:04.600Z,14.24
2023-05-20T04:32:04.569Z,14.24
2023-05-20T04:33:04.593Z,14.24
2023-05-20T04:34:04.541Z,14.22
2023-05-20T04:35:04.452Z,14.28
2023-05-20T04:36:04.448Z,14.33
2023-05-20T04:37:04.441Z,14.37
2023-05-20T04:38:04.423Z,14.35
2023-05-20T04:39:04.404Z,14.43
2023-05-20T04:40:04.397Z,14.50
2023-05-20T04:41:04.385Z,14.58
2023-05-20T04:42:04.370Z,14.68
2023-05-20T04:43:04.358Z,14.75
2023-05-20T04:44:04.360Z,14.87
2023-05-20T04:45:04.327Z,14.91
2023-05-20T04:46:04.384Z,14.91
2023-05-20T04:47:04.312Z,14.93
2023-05-20T04:48:04.373Z,14.88
2023-05-20T04:49:04.276Z,14.85
2023-05-20T04:50:04.267Z,14.97
2023-05-20T04:51:04.248Z,15.02
2023-05-20T04:52:04.236Z,15.01
2023-05-20T04:53:04.228Z,15.00
2023-05-20T04:54:04.215Z,14.97
2023-05-20T04:55:04.197Z,15.01
2023-05-20T04:56:04.192Z,14.93
2023-05-20T04:57:04.177Z,14.83
2023-05-20T04:58:04.171Z,14.87
2023-05-20T04:59:04.147Z,14.72
2023-05-20T05:00:04.153Z,14.72
2023-05-20T05:01:04.150Z,14.76
2023-05-20T05:02:04.137Z,14.75
2023-05-20T05:03:04.207Z,14.69
2023-05-20T05:04:04.085Z,14.70
2023-05-20T05:05:04.237Z,14.76
2023-05-20T05:06:04.058Z,14.76
2023-05-20T05:07:04.045Z,14.73
2023-05-20T05:08:04.058Z,14.80
2023-05-20T05:09:04.033Z,14.83
2023-05-20T05:10:04.026Z,14.90
2023-05-20T05:11:03.998Z,14.93
2023-05-20T05:12:03.999Z,14.85
2023-05-20T05:13:03.971Z,14.85
2023-05-20T05:14:03.967Z,14.93
2023-05-20T05:15:03.951Z,14.94
2023-05-20T05:16:04.003Z,15.01
2023-05-20T05:17:03.933Z,15.08
2023-05-20T05:18:03.975Z,15.10
2023-05-20T05:19:03.931Z,15.12
2023-05-20T05:20:03.885Z,15.15
2023-05-20T05:21:03.870Z,15.12
2023-05-20T05:22:03.866Z,15.18
2023-05-20T05:23:03.885Z,15.24
2023-05-20T05:24:03.834Z,15.26
2023-05-20T05:25:03.819Z,15.26
2023-05-20T05:26:03.809Z,15.38
2023-05-20T05:28:03.800Z,15.34
2023-05-20T05:29:03.767Z,15.50
2023-05-20T05:30:03.763Z,15.53
2023-05-20T05:31:03.767Z,15.45
2023-05-20T05:32:03.786Z,15.34
2023-05-20T05:33:03.938Z,15.35
2023-05-20T05:34:03.736Z,15.45
2023-05-20T05:35:05.064Z,15.51
2023-05-20T05:36:03.678Z,15.51
2023-05-20T05:37:03.662Z,15.43
2023-05-20T05:38:03.654Z,15.40
2023-05-20T05:39:03.637Z,15.42
2023-05-20T05:40:03.633Z,15.49
2023-05-20T05:41:03.636Z,15.62
2023-05-20T05:42:03.594Z,15.75
2023-05-20T05:43:03.579Z,15.89
2023-05-20T05:44:03.575Z,15.93
2023-05-20T05:45:03.570Z,15.89
2023-05-20T05:46:03.548Z,15.93
2023-05-20T05:47:03.589Z,16.01
2023-05-20T05:48:03.589Z,16.00
2023-05-20T05:49:03.543Z,16.00
2023-05-20T05:50:03.534Z,16.08
2023-05-20T05:51:03.470Z,16.12
2023-05-20T05:52:03.460Z,16.23
2023-05-20T05:53:03.445Z,16.12
2023-05-20T05:54:03.437Z,16.05
2023-05-20T05:55:03.425Z,16.02
2023-05-20T05:56:03.412Z,16.08
2023-05-20T05:57:05.760Z,16.01
2023-05-20T05:58:03.380Z,16.02
2023-05-20T05:59:03.374Z,16.11
2023-05-20T06:00:03.361Z,16.20
2023-05-20T06:02:03.353Z,16.34
2023-05-20T06:03:03.423Z,16.47
2023-05-20T06:04:03.429Z,16.47
2023-05-20T06:05:03.297Z,16.49
2023-05-20T06:06:03.309Z,16.49
2023-05-20T06:07:03.288Z,16.52
2023-05-20T06:08:03.261Z,16.57
2023-05-20T06:09:03.239Z,16.69
2023-05-20T06:10:03.239Z,16.67
2023-05-20T06:11:03.210Z,16.67
2023-05-20T06:12:03.201Z,16.67
2023-05-20T06:13:03.196Z,16.74
2023-05-20T06:14:03.182Z,16.80
2023-05-20T06:15:03.181Z,16.75
2023-05-20T06:16:03.156Z,16.74
2023-05-20T06:17:03.220Z,16.70
2023-05-20T06:18:03.199Z,16.67
2023-05-20T06:19:03.888Z,16.70
2023-05-20T06:20:03.098Z,16.75
2023-05-20T06:21:03.081Z,16.57
2023-05-20T06:22:03.102Z,16.57
2023-05-20T06:23:03.073Z,16.48
2023-05-20T06:24:03.045Z,16.41
2023-05-20T06:25:03.033Z,16.55
2023-05-20T06:26:03.020Z,16.63
2023-05-20T06:28:03.003Z,16.96
2023-05-20T06:29:02.980Z,17.06
2023-05-20T06:30:02.964Z,17.00
2023-05-20T06:31:03.012Z,17.06
2023-05-20T06:32:02.941Z,17.28
2023-05-20T06:33:02.986Z,17.38
2023-05-20T06:34:02.926Z,17.26
2023-05-20T06:35:02.920Z,17.34
2023-05-20T06:36:02.909Z,17.49
2023-05-20T06:37:02.876Z,17.67
2023-05-20T06:38:02.953Z,17.91
2023-05-20T06:39:02.866Z,18.09
2023-05-20T06:40:02.847Z,18.20
2023-05-20T06:41:02.828Z,18.36
2023-05-20T06:42:02.836Z,18.54
2023-05-20T06:43:02.807Z,18.67
2023-05-20T06:44:02.792Z,18.65
2023-05-20T06:45:02.783Z,19.31
2023-05-20T06:46:02.829Z,19.50
2023-05-20T06:47:02.750Z,19.86
2023-05-20T06:48:02.786Z,20.11
2023-05-20T06:49:02.720Z,20.26
2023-05-20T06:50:02.704Z,20.53
2023-05-20T06:51:02.696Z,20.61
2023-05-20T06:52:02.681Z,20.56
2023-05-20T06:53:02.672Z,20.73
2023-05-20T06:54:02.689Z,20.33
2023-05-20T06:55:02.645Z,20.06
2023-05-20T06:56:02.632Z,19.36
2023-05-20T06:57:02.630Z,19.07
2023-05-20T06:58:02.603Z,18.99
2023-05-20T06:59:02.615Z,18.95
2023-05-20T07:00:02.615Z,18.94
2023-05-20T07:01:02.593Z,19.31
2023-05-20T07:02:02.598Z,20.08
2023-05-20T07:03:02.605Z,20.57
2023-05-20T07:04:02.626Z,21.02
2023-05-20T07:05:02.517Z,21.37
2023-05-20T07:06:02.501Z,21.15
2023-05-20T07:07:02.489Z,21.58
2023-05-20T07:08:02.474Z,21.72
2023-05-20T07:09:02.510Z,21.72
2023-05-20T07:10:02.484Z,21.79
2023-05-20T07:11:02.437Z,22.29
2023-05-20T07:12:02.425Z,21.84
2023-05-20T07:13:02.419Z,21.64
2023-05-20T07:14:02.404Z,21.25
2023-05-20T07:15:02.398Z,20.71
2023-05-20T07:16:02.415Z,20.31
2023-05-20T07:17:02.367Z,20.86
2023-05-20T07:18:02.479Z,21.29
2023-05-20T07:19:02.377Z,21.87
2023-05-20T07:20:02.336Z,22.09
2023-05-20T07:21:02.313Z,22.29
2023-05-20T07:22:02.309Z,22.26
2023-05-20T07:23:02.292Z,22.23
2023-05-20T07:24:02.278Z,22.09
2023-05-20T07:25:02.279Z,22.17
2023-05-20T07:26:02.274Z,21.98
2023-05-20T07:27:02.262Z,22.30
2023-05-20T07:28:02.223Z,22.41
2023-05-20T07:29:02.216Z,22.57
2023-05-20T07:30:02.192Z,22.27
2023-05-20T07:31:02.195Z,21.97
2023-05-20T07:32:02.416Z,21.67
2023-05-20T07:33:02.249Z,21.83
2023-05-20T07:34:02.146Z,21.77
2023-05-20T07:35:02.135Z,21.95
2023-05-20T07:36:02.121Z,22.05
2023-05-20T07:37:02.113Z,21.98
2023-05-20T07:38:02.093Z,21.80
2023-05-20T07:39:04.399Z,21.71
2023-05-20T07:40:02.108Z,21.97
2023-05-20T07:41:02.061Z,22.09
2023-05-20T07:42:02.075Z,21.98
2023-05-20T07:43:02.028Z,22.04
2023-05-20T07:44:02.013Z,22.13
2023-05-20T07:45:02.004Z,22.19
2023-05-20T07:46:02.018Z,22.41
2023-05-20T07:47:01.971Z,22.83
2023-05-20T07:48:01.993Z,22.88
2023-05-20T07:49:01.955Z,22.57
2023-05-20T07:50:01.937Z,22.21
2023-05-20T07:51:01.926Z,22.27
2023-05-20T07:52:03.001Z,22.36
2023-05-20T07:53:01.912Z,22.26
2023-05-20T07:54:01.903Z,22.14
2023-05-20T07:55:01.875Z,22.34
2023-05-20T07:56:01.866Z,22.24
2023-05-20T07:57:01.855Z,22.62
2023-05-20T07:58:01.869Z,22.95
2023-05-20T07:59:01.833Z,23.07
2023-05-20T08:00:01.807Z,23.41
2023-05-20T08:01:01.802Z,22.72
2023-05-20T08:02:01.841Z,22.73
2023-05-20T08:03:02.065Z,22.60
2023-05-20T08:04:01.797Z,22.77
2023-05-20T08:05:01.771Z,22.46
2023-05-20T08:06:01.736Z,22.57
2023-05-20T08:07:01.748Z,22.08
2023-05-20T08:08:01.722Z,21.58
2023-05-20T08:09:01.712Z,22.23
2023-05-20T08:10:01.696Z,22.44
2023-05-20T08:11:01.715Z,22.36
2023-05-20T08:12:01.664Z,22.41
2023-05-20T08:13:01.649Z,22.44
2023-05-20T08:14:01.657Z,21.56
2023-05-20T08:15:01.628Z,21.62
2023-05-20T08:16:01.622Z,21.25
2023-05-20T08:17:01.633Z,20.94
2023-05-20T08:18:01.707Z,20.68
2023-05-20T08:19:01.583Z,20.96
2023-05-20T08:20:01.571Z,20.86
2023-05-20T08:21:01.552Z,20.88
2023-05-20T08:22:01.542Z,21.35
2023-05-20T08:23:01.532Z,21.59
2023-05-20T08:24:01.511Z,21.21
2023-05-20T08:25:01.498Z,21.28
2023-05-20T08:26:01.482Z,21.03
2023-05-20T08:27:01.486Z,20.97
2023-05-20T08:28:01.463Z,20.97
2023-05-20T08:29:01.452Z,20.54
2023-05-20T08:30:01.489Z,20.16
2023-05-20T08:31:01.479Z,20.26
2023-05-20T08:32:01.416Z,20.31
2023-05-20T08:33:01.443Z,20.28
2023-05-20T08:34:01.381Z,20.02
2023-05-20T08:35:01.379Z,20.35
2023-05-20T08:36:01.356Z,20.61
2023-05-20T08:37:01.345Z,20.97
2023-05-20T08:38:01.336Z,21.31
2023-05-20T08:39:01.323Z,21.19
2023-05-20T08:40:01.308Z,21.69
2023-05-20T08:41:03.675Z,22.57
2023-05-20T08:42:01.278Z,23.42
2023-05-20T08:43:01.273Z,23.78
2023-05-20T08:44:01.261Z,23.71
2023-05-20T08:45:01.244Z,23.59
2023-05-20T08:46:01.288Z,23.78
2023-05-20T08:47:01.267Z,24.32
2023-05-20T08:48:01.267Z,24.39
2023-05-20T08:49:01.198Z,24.86
2023-05-20T08:50:01.181Z,24.46
2023-05-20T08:51:01.172Z,23.82
2023-05-20T08:52:01.161Z,23.59
2023-05-20T08:53:01.158Z,23.20
2023-05-20T08:54:01.131Z,22.90
2023-05-20T08:55:01.129Z,22.26
2023-05-20T08:56:01.700Z,21.87
2023-05-20T08:57:01.098Z,21.61
2023-05-20T08:58:01.096Z,21.46
2023-05-20T08:59:01.076Z,21.69
2023-05-20T09:00:01.078Z,21.93
2023-05-20T09:01:01.078Z,22.32
2023-05-20T09:02:01.116Z,22.62
2023-05-20T09:03:01.398Z,22.75
2023-05-20T09:04:01.014Z,22.57
2023-05-20T09:05:01.037Z,22.21
2023-05-20T09:06:00.988Z,21.71
2023-05-20T09:07:00.989Z,21.43
2023-05-20T09:08:01.624Z,21.37
2023-05-20T09:09:00.956Z,21.34
2023-05-20T09:10:00.936Z,21.22
2023-05-20T09:11:00.924Z,21.12
2023-05-20T09:12:00.909Z,21.22
2023-05-20T09:13:00.899Z,21.32
2023-05-20T09:14:00.882Z,21.61
2023-05-20T09:15:00.926Z,21.47
2023-05-20T09:16:00.902Z,21.40
2023-05-20T09:17:00.849Z,21.42
2023-05-20T09:18:00.921Z,21.38
2023-05-20T09:19:00.856Z,21.64
2023-05-20T09:20:00.810Z,21.77
2023-05-20T09:21:00.785Z,21.58
2023-05-20T09:22:00.777Z,21.58
2023-05-20T09:23:00.762Z,21.59
2023-05-20T09:24:00.754Z,21.62
2023-05-20T09:25:00.740Z,21.67
2023-05-20T09:26:00.730Z,21.77
2023-05-20T09:27:00.720Z,22.09
2023-05-20T09:28:00.697Z,22.04
2023-05-20T09:29:00.688Z,21.91
2023-05-20T09:30:00.680Z,21.97
2023-05-20T09:31:00.683Z,21.64
2023-05-20T09:32:00.708Z,21.77
2023-05-20T09:33:00.692Z,21.71
2023-05-20T09:34:00.647Z,21.71
2023-05-20T09:35:00.619Z,21.62
2023-05-20T09:36:00.611Z,21.38
2023-05-20T09:37:00.586Z,21.38
2023-05-20T09:38:00.575Z,21.87
2023-05-20T09:39:00.563Z,21.82
2023-05-20T09:40:00.544Z,21.37
2023-05-20T09:41:00.530Z,21.17
2023-05-20T09:42:02.548Z,20.90
2023-05-20T09:43:00.507Z,20.84
2023-05-20T09:44:00.500Z,20.78
2023-05-20T09:45:00.482Z,21.02
2023-05-20T09:46:00.505Z,21.21
2023-05-20T09:47:00.450Z,21.25
2023-05-20T09:48:00.486Z,21.71
2023-05-20T09:49:00.434Z,21.68
2023-05-20T09:50:00.447Z,21.42
2023-05-20T09:51:00.407Z,21.22
2023-05-20T09:52:00.400Z,21.12
2023-05-20T09:53:00.378Z,21.27
2023-05-20T09:54:00.365Z,21.08
2023-05-20T09:55:00.369Z,21.12
2023-05-20T09:56:00.339Z,21.03
2023-05-20T09:57:00.350Z,20.73
2023-05-20T09:58:00.316Z,20.61
2023-05-20T09:59:00.310Z,20.72
2023-05-20T10:00:00.287Z,20.66
2023-05-20T10:01:00.299Z,20.39
2023-05-20T10:03:00.380Z,20.49
2023-05-20T10:04:00.284Z,20.66
2023-05-20T10:05:00.235Z,20.66
2023-05-20T10:06:00.247Z,20.56
2023-05-20T10:07:00.202Z,20.47
2023-05-20T10:08:00.208Z,20.49
2023-05-20T10:09:00.176Z,20.61
2023-05-20T10:10:00.220Z,20.76
2023-05-20T10:11:00.177Z,20.93
2023-05-20T10:12:00.147Z,21.03
2023-05-20T10:13:00.134Z,21.02
2023-05-20T10:14:00.167Z,20.97
2023-05-20T10:15:00.137Z,20.96
2023-05-20T10:16:00.237Z,21.05
2023-05-20T10:17:00.079Z,21.02
2023-05-20T10:18:00.135Z,21.11
2023-05-20T10:19:00.088Z,21.28
2023-05-20T10:20:00.055Z,21.53
2023-05-20T10:21:00.023Z,21.54
2023-05-20T10:22:00.165Z,21.42
2023-05-20T10:23:00.011Z,21.00
2023-05-20T10:24:02.204Z,21.17
2023-05-20T10:24:59.985Z,21.19
2023-05-20T10:25:59.955Z,21.29
2023-05-20T10:26:59.951Z,21.49
2023-05-20T10:27:59.938Z,21.59
2023-05-20T10:28:59.919Z,21.50
2023-05-20T10:29:59.909Z,21.37
2023-05-20T10:30:59.906Z,21.31
2023-05-20T10:31:59.895Z,21.53
2023-05-20T10:33:00.009Z,21.69
2023-05-20T10:33:59.855Z,21.72
2023-05-20T10:34:59.852Z,21.68
2023-05-20T10:35:59.859Z,21.67
2023-05-20T10:36:59.811Z,21.56
2023-05-20T10:37:59.832Z,21.37
2023-05-20T10:38:59.800Z,21.91
2023-05-20T10:39:59.773Z,22.17
2023-05-20T10:40:59.761Z,22.29
2023-05-20T10:41:59.750Z,22.38
2023-05-20T10:42:59.738Z,22.17
2023-05-20T10:43:59.729Z,21.95
2023-05-20T10:44:59.714Z,22.38
2023-05-20T10:45:59.711Z,22.80
2023-05-20T10:47:16.868Z,22.80
2023-05-20T10:48:01.758Z,22.79
2023-05-20T10:48:59.751Z,22.77
2023-05-20T10:49:59.650Z,22.44
2023-05-20T10:50:59.634Z,22.20
2023-05-20T10:51:59.628Z,22.02
2023-05-20T10:52:59.610Z,21.82
2023-05-20T10:53:59.666Z,21.90
2023-05-20T10:54:59.586Z,21.79
2023-05-20T10:55:59.577Z,21.65
2023-05-20T10:56:59.563Z,21.43
2023-05-20T10:57:59.546Z,21.12
2023-05-20T10:58:59.531Z,20.97
2023-05-20T10:59:59.526Z,21.00
2023-05-20T11:00:59.542Z,20.96
2023-05-20T11:01:59.494Z,20.71
2023-05-20T11:02:59.677Z,20.93
2023-05-20T11:03:59.541Z,21.19
2023-05-20T11:04:59.510Z,21.32
2023-05-20T11:05:59.447Z,21.37
2023-05-20T11:06:59.435Z,21.44
2023-05-20T11:07:59.419Z,21.43
2023-05-20T11:08:59.405Z,21.38
2023-05-20T11:09:59.454Z,21.29
2023-05-20T11:10:59.403Z,21.19
2023-05-20T11:11:59.384Z,21.11
2023-05-20T11:12:59.412Z,21.06
2023-05-20T11:13:59.343Z,21.24
2023-05-20T11:14:59.328Z,21.32
2023-05-20T11:15:59.317Z,21.22
2023-05-20T11:16:59.372Z,21.19
2023-05-20T11:17:59.324Z,21.17
2023-05-20T11:18:59.346Z,21.22
2023-05-20T11:19:59.267Z,21.17
2023-05-20T11:20:59.252Z,21.11
2023-05-20T11:21:59.246Z,21.06
2023-05-20T11:22:59.226Z,21.13
2023-05-20T11:23:59.217Z,21.37
2023-05-20T11:24:59.200Z,21.43
2023-05-20T11:25:59.214Z,21.31
2023-05-20T11:26:59.176Z,21.29
2023-05-20T11:27:59.163Z,21.34
2023-05-20T11:29:00.732Z,21.13
2023-05-20T11:29:59.139Z,21.17
2023-05-20T11:30:59.125Z,21.09
2023-05-20T11:31:59.146Z,20.98
2023-05-20T11:32:59.164Z,21.00
2023-05-20T11:33:59.089Z,21.02
2023-05-20T11:34:59.074Z,20.90
2023-05-20T11:35:59.061Z,20.87
2023-05-20T11:36:59.206Z,20.91
2023-05-20T11:37:59.045Z,21.11
2023-05-20T11:38:59.060Z,20.93
2023-05-20T11:39:59.012Z,20.97
2023-05-20T11:40:59.291Z,21.17
2023-05-20T11:41:59.060Z,21.29
2023-05-20T11:42:58.970Z,21.49
2023-05-20T11:43:58.963Z,21.59
2023-05-20T11:45:00.030Z,21.58
2023-05-20T11:45:58.944Z,21.82
2023-05-20T11:46:58.920Z,21.79
2023-05-20T11:47:58.957Z,21.71
2023-05-20T11:48:58.889Z,21.95
2023-05-20T11:49:58.881Z,22.60
2023-05-20T11:51:01.290Z,23.53
2023-05-20T11:51:58.871Z,24.35
2023-05-20T11:52:58.841Z,25.12
2023-05-20T11:53:58.830Z,25.54
2023-05-20T11:54:58.816Z,25.61
2023-05-20T11:55:58.814Z,24.69
2023-05-20T11:56:58.795Z,24.32
2023-05-20T11:57:58.801Z,24.08
2023-05-20T11:58:58.769Z,23.90
2023-05-20T11:59:58.759Z,23.90
2023-05-20T12:01:05.694Z,24.65
2023-05-20T12:02:00.724Z,25.26
2023-05-20T12:02:58.793Z,25.75
2023-05-20T12:03:58.877Z,25.62
2023-05-20T12:04:58.758Z,25.31
2023-05-20T12:05:58.687Z,25.42
2023-05-20T12:06:58.667Z,25.60
2023-05-20T12:07:58.662Z,25.87
2023-05-20T12:08:58.641Z,26.19
2023-05-20T12:09:58.631Z,26.42
2023-05-20T12:10:58.622Z,26.38
2023-05-20T12:11:58.622Z,27.00
2023-05-20T12:12:58.599Z,27.14
2023-05-20T12:13:58.610Z,27.28
2023-05-20T12:14:58.573Z,27.13
2023-05-20T12:15:58.574Z,26.69
2023-05-20T12:16:58.543Z,26.87
2023-05-20T12:17:58.574Z,26.50
2023-05-20T12:18:58.578Z,26.92
2023-05-20T12:19:58.507Z,27.14
2023-05-20T12:20:58.495Z,26.80
2023-05-20T12:21:58.482Z,26.53
2023-05-20T12:22:58.476Z,26.06
2023-05-20T12:23:58.457Z,26.36
2023-05-20T12:24:58.477Z,26.75
2023-05-20T12:25:58.431Z,26.75
2023-05-20T12:26:58.425Z,26.74
2023-05-20T12:27:58.411Z,27.14
2023-05-20T12:28:58.392Z,26.66
2023-05-20T12:29:58.407Z,25.92
2023-05-20T12:30:58.365Z,25.24
2023-05-20T12:31:58.384Z,25.75
2023-05-20T12:32:58.372Z,26.44
2023-05-20T12:33:58.332Z,26.43
2023-05-20T12:34:58.315Z,25.38
2023-05-20T12:35:58.308Z,24.49
2023-05-20T12:36:58.298Z,23.71
2023-05-20T12:37:58.284Z,23.54
2023-05-20T12:38:58.262Z,23.52
2023-05-20T12:39:58.256Z,23.74
2023-05-20T12:40:58.244Z,24.28
2023-05-20T12:41:58.240Z,24.32
2023-05-20T12:42:58.213Z,24.84
2023-05-20T12:43:58.205Z,25.01
2023-05-20T12:44:58.188Z,25.12
2023-05-20T12:45:58.207Z,24.92
2023-05-20T12:46:58.178Z,24.83
2023-05-20T12:47:58.229Z,25.13
2023-05-20T12:48:58.150Z,25.62
2023-05-20T12:49:58.129Z,24.98
2023-05-20T12:50:58.114Z,24.47
2023-05-20T12:51:59.940Z,23.92
2023-05-20T12:52:58.101Z,23.57
2023-05-20T12:53:58.083Z,23.37
2023-05-20T12:54:58.065Z,23.31
2023-05-20T12:55:58.053Z,23.46
2023-05-20T12:56:58.040Z,23.37